Time;durP1;ratioP1;P1;durP2;ratioP2;P2;SDS_P1;SDS_P2;PMS_P1;PMS_P2;Temp;Humidity;BMP_temperature;BMP_pressure;BME280_temperature;BME280_humidity;BME280_pressure;Samples;Min_cycle;Max_cycle;Signal;HPM_P1;HPM_P2
2023/08/21 00:01:08;;;;;;;2.10;2.00;;;21.60;99.90;;;22.04;78.73;102220.00;5021934;28;20104;-72
2023/08/21 00:07:09;;;;;;;2.53;2.42;;;21.60;99.90;;;22.00;81.90;102223.72;5172554;23;20407;-72
2023/08/21 00:09:37;;;;;;;2.35;2.25;;;21.50;99.90;;;21.97;82.07;102221.09;5043324;28;20048;-71
2023/08/21 00:12:07;;;;;;;2.20;2.10;;;21.50;99.90;;;22.00;82.58;102222.81;5043150;28;20063;-71
2023/08/21 00:14:35;;;;;;;2.47;2.37;;;21.50;99.90;;;21.99;82.86;102227.31;5044397;28;20049;-71
2023/08/21 00:17:04;;;;;;;2.28;2.17;;;21.50;99.90;;;21.83;82.73;102192.78;5042159;28;20049;-72
2023/08/21 00:19:33;;;;;;;2.63;2.53;;;21.50;99.90;;;21.96;82.55;102222.03;5045643;28;20052;-74
2023/08/21 00:22:01;;;;;;;2.33;2.22;;;21.40;99.90;;;21.62;82.32;102190.69;5045528;28;20053;-74
2023/08/21 00:24:31;;;;;;;2.40;2.30;;;21.30;99.90;;;21.66;83.06;102213.94;5033304;28;20109;-74
2023/08/21 00:26:59;;;;;;;2.40;2.30;;;21.10;99.90;;;21.50;82.54;102219.72;5033766;28;20052;-74
2023/08/21 00:29:29;;;;;;;2.33;2.22;;;21.00;99.90;;;21.53;81.94;102216.06;5032205;28;20284;-74
2023/08/21 00:31:58;;;;;;;2.10;2.00;;;21.00;99.90;;;21.46;81.94;102198.34;5033284;28;20045;-74
2023/08/21 00:34:26;;;;;;;2.20;2.10;;;21.00;99.90;;;21.45;82.18;102201.94;5055377;28;20064;-74
2023/08/21 00:36:54;;;;;;;2.45;2.35;;;20.90;99.90;;;21.53;81.93;102208.88;5042090;28;20506;-74
2023/08/21 00:39:23;;;;;;;2.30;2.20;;;21.00;99.90;;;21.51;82.45;102209.84;5041065;28;20037;-74
2023/08/21 00:41:52;;;;;;;2.10;2.00;;;21.00;99.90;;;21.48;83.01;102204.56;5042739;28;20451;-74
2023/08/21 00:44:21;;;;;;;2.60;2.50;;;21.00;99.90;;;21.29;82.96;102214.94;5040886;28;20109;-74
2023/08/21 00:46:50;;;;;;;2.30;2.20;;;20.80;99.90;;;20.78;83.15;102137.38;5031854;28;20140;-74
2023/08/21 00:49:19;;;;;;;2.30;2.20;;;20.80;99.90;;;21.24;83.35;102208.81;5039747;28;20073;-74
2023/08/21 00:51:48;;;;;;;2.42;2.33;;;20.70;99.90;;;21.22;83.53;102209.75;5034179;28;20049;-75
2023/08/21 00:54:17;;;;;;;2.80;2.70;;;20.70;99.90;;;21.24;83.76;102208.81;5050043;28;20410;-75
2023/08/21 00:56:46;;;;;;;3.38;3.28;;;20.70;99.90;;;21.36;83.11;102204.88;5043254;28;20128;-74
2023/08/21 00:59:20;;;;;;;2.80;2.70;;;20.80;99.90;;;21.36;82.21;102204.88;5041783;28;20045;-74
2023/08/21 01:01:48;;;;;;;2.65;2.55;;;20.80;99.90;;;21.31;82.22;102196.06;5039587;28;20046;-74
2023/08/21 01:04:16;;;;;;;2.58;2.47;;;20.90;99.90;;;21.36;82.36;102196.81;5044274;28;20132;-71
2023/08/21 01:06:45;;;;;;;2.30;2.20;;;20.90;99.90;;;21.41;82.74;102211.00;5044055;28;20053;-72
2023/08/21 01:09:23;;;;;;;2.45;2.35;;;20.90;99.90;;;21.52;83.61;102203.53;5040248;28;20171;-73
2023/08/21 01:12:00;;;;;;;2.22;2.13;;;21.00;99.90;;;21.66;84.28;102212.09;5048866;28;20040;-72
2023/08/21 01:14:42;;;;;;;3.05;2.95;;;21.10;99.90;;;21.63;84.72;102208.59;5041004;28;20072;-73
2023/08/21 01:17:14;;;;;;;2.47;2.38;;;21.10;99.90;;;21.66;84.58;102206.69;5049093;28;20052;-71
2023/08/21 01:19:45;;;;;;;2.60;2.50;;;21.10;99.90;;;21.65;85.13;102209.44;5039265;28;20506;-73
2023/08/21 01:22:14;;;;;;;2.38;2.28;;;21.10;99.90;;;21.52;85.10;102211.63;5044602;28;20060;-73
2023/08/21 01:24:43;;;;;;;2.47;2.38;;;21.00;99.90;;;21.48;84.99;102212.63;5039441;28;20119;-73
2023/08/21 01:27:14;;;;;;;2.38;2.28;;;21.00;99.90;;;21.47;84.53;102221.63;5050517;28;20152;-72
2023/08/21 01:29:43;;;;;;;2.45;2.35;;;21.00;99.90;;;21.41;84.22;102217.28;5042277;28;20053;-72
2023/08/21 01:32:21;;;;;;;2.42;2.33;;;20.90;99.90;;;21.42;85.12;102218.19;5042308;28;20073;-73
2023/08/21 01:34:51;;;;;;;2.22;2.13;;;20.90;99.90;;;21.33;84.14;102219.31;5044217;28;20073;-73
2023/08/21 01:37:20;;;;;;;3.25;3.15;;;20.80;99.90;;;21.30;84.36;102210.44;5040407;28;20057;-73
2023/08/21 01:39:51;;;;;;;2.33;2.22;;;20.80;99.90;;;21.28;85.30;102214.97;5043744;28;20041;-73
2023/08/21 01:42:20;;;;;;;2.60;2.50;;;20.80;99.90;;;21.28;84.98;102199.72;5042167;28;20042;-73
2023/08/21 01:44:48;;;;;;;2.40;2.30;;;20.90;99.90;;;21.45;83.93;102218.97;5042407;28;20056;-73
2023/08/21 01:47:17;;;;;;;2.50;2.40;;;20.90;99.90;;;21.39;84.31;102215.56;5042558;28;20072;-73
2023/08/21 01:49:45;;;;;;;2.58;2.47;;;20.90;99.90;;;21.48;84.80;102224.31;5041496;28;20452;-73
2023/08/21 01:52:14;;;;;;;2.42;2.33;;;21.00;99.90;;;21.47;84.92;102224.31;5042103;28;20675;-73
2023/08/21 01:54:42;;;;;;;2.58;2.47;;;21.00;99.90;;;21.39;86.04;102219.16;5043256;28;20136;-73
2023/08/21 01:57:12;;;;;;;2.70;2.60;;;20.90;99.90;;;20.87;85.76;102213.34;5048005;28;20072;-73
2023/08/21 01:59:41;;;;;;;2.30;2.20;;;20.50;99.90;;;19.68;88.13;102100.63;5044668;28;20433;-73
2023/08/21 02:02:11;;;;;;;;;;;19.90;99.90;;;20.15;88.73;102209.69;5045970;28;20045;-73
2023/08/21 02:04:40;;;;;;;2.78;2.67;;;19.60;99.90;;;20.19;88.96;102216.81;5045619;28;20357;-72
2023/08/21 02:07:08;;;;;;;2.40;2.30;;;19.60;99.90;;;20.15;89.33;102207.88;5046061;28;20057;-73
2023/08/21 02:09:37;;;;;;;2.75;2.65;;;19.60;99.90;;;20.08;89.69;102205.34;5046201;28;20081;-71
2023/08/21 02:12:06;;;;;;;2.50;2.40;;;19.70;99.90;;;20.36;90.37;102220.84;5045191;28;20103;-73
2023/08/21 02:14:35;;;;;;;2.70;2.60;;;19.80;99.90;;;20.45;89.24;102219.75;5047233;28;20095;-73
2023/08/21 02:17:05;;;;;;;2.40;2.30;;;19.90;99.90;;;20.57;88.03;102225.75;5044387;28;20115;-73
2023/08/21 02:19:33;;;;;;;2.58;2.47;;;20.00;99.90;;;20.66;87.37;102221.94;5042654;28;20080;-72
2023/08/21 02:22:02;;;;;;;2.70;2.60;;;20.20;99.90;;;20.62;87.22;102221.13;5045978;28;20049;-71
2023/08/21 02:24:30;;;;;;;6.85;6.38;;;20.20;99.90;;;20.66;88.32;102217.47;5044402;28;20491;-72
2023/08/21 02:26:58;;;;;;;2.85;2.75;;;20.20;99.90;;;20.67;88.83;102219.19;5045095;28;20478;-72
2023/08/21 02:29:27;;;;;;;3.05;2.95;;;20.20;99.90;;;20.74;88.91;102217.25;5045057;28;20053;-73
2023/08/21 02:31:56;;;;;;;2.70;2.60;;;20.30;99.90;;;20.78;88.71;102223.44;5045629;28;20522;-73
2023/08/21 02:34:25;;;;;;;2.80;2.70;;;20.30;99.90;;;20.83;88.31;102214.34;5046178;28;20046;-72
2023/08/21 02:36:53;;;;;;;2.80;2.70;;;20.30;99.90;;;20.88;88.33;102209.75;5044529;28;20049;-71
2023/08/21 02:39:21;;;;;;;2.63;2.53;;;20.40;99.90;;;20.98;87.63;102226.53;5046483;28;20123;-73
2023/08/21 02:41:50;;;;;;;2.10;2.00;;;20.50;99.90;;;21.12;87.01;102219.88;5043593;28;20052;-72
2023/08/21 02:44:18;;;;;;;2.50;2.40;;;20.60;99.90;;;21.15;86.62;102213.53;5043399;28;20049;-72
2023/08/21 02:46:48;;;;;;;2.50;2.40;;;20.60;99.90;;;21.22;85.87;102216.03;5042743;28;20049;-73
2023/08/21 02:49:17;;;;;;;2.50;2.40;;;20.70;99.90;;;21.08;86.24;102201.19;5046457;28;20375;-73
2023/08/21 02:51:46;;;;;;;2.50;2.40;;;20.80;99.90;;;21.18;87.13;102226.91;5044616;28;20064;-73
2023/08/21 02:54:14;;;;;;;2.33;2.22;;;20.70;99.90;;;21.12;86.94;102230.66;5051984;28;20049;-73
2023/08/21 02:56:43;;;;;;;2.47;2.38;;;20.70;99.90;;;21.08;87.10;102225.41;5045650;28;20050;-73
2023/08/21 02:59:12;;;;;;;2.58;2.47;;;20.60;99.90;;;21.08;87.25;102217.34;5044370;28;20052;-73
2023/08/21 03:01:40;;;;;;;2.80;2.70;;;20.60;99.90;;;21.04;87.75;102221.88;5045943;28;20044;-73
2023/08/21 03:04:08;;;;;;;2.17;2.08;;;20.50;99.90;;;21.03;87.67;102213.84;5043528;28;20034;-73
2023/08/21 03:06:38;;;;;;;2.50;2.40;;;20.50;99.90;;;20.96;87.21;102215.81;5045515;28;20056;-72
2023/08/21 03:09:06;;;;;;;2.27;2.17;;;20.50;99.90;;;20.96;86.89;102213.13;5041698;28;20065;-72
2023/08/21 03:11:35;;;;;;;2.25;2.15;;;20.40;99.90;;;20.97;87.19;102208.59;5046309;28;20494;-73
2023/08/21 03:14:03;;;;;;;2.25;2.15;;;20.50;99.90;;;21.03;86.71;102216.56;5042617;28;20053;-72
2023/08/21 03:16:31;;;;;;;2.20;2.10;;;20.50;99.90;;;21.07;86.53;102220.94;5045284;28;20076;-73
2023/08/21 03:19:01;;;;;;;2.33;2.22;;;20.50;99.90;;;21.10;85.98;102210.09;5044321;28;20041;-73
2023/08/21 03:21:31;;;;;;;2.40;2.30;;;20.60;99.90;;;20.94;86.14;102184.47;5050812;28;20053;-73
2023/08/21 03:24:02;;;;;;;2.42;2.33;;;20.60;99.90;;;21.06;86.57;102203.91;5044474;28;20139;-73
2023/08/21 03:26:34;;;;;;;2.30;2.20;;;20.60;99.90;;;21.03;86.57;102208.47;5045997;28;20104;-72
2023/08/21 03:29:03;;;;;;;2.20;2.10;;;20.50;99.90;;;21.13;86.01;102207.31;5046214;28;20048;-73
2023/08/21 03:31:32;;;;;;;2.35;2.25;;;20.60;99.90;;;21.21;85.19;102208.91;5043422;28;20111;-73
2023/08/21 03:34:00;;;;;;;2.30;2.20;;;20.70;99.90;;;21.28;84.16;102213.19;5051541;28;20057;-73
2023/08/21 03:36:31;;;;;;;2.30;2.20;;;20.80;99.90;;;21.31;83.39;102193.38;5044180;28;20042;-73
2023/08/21 03:39:05;;;;;;;2.42;2.33;;;20.90;99.90;;;21.40;82.87;102207.47;5042337;28;20053;-73
2023/08/21 03:41:37;;;;;;;2.50;2.40;;;21.00;99.90;;;21.45;82.26;102207.31;5041243;28;20085;-72
2023/08/21 03:44:06;;;;;;;2.28;2.17;;;21.10;99.90;;;21.48;82.19;102204.56;5052425;28;20091;-73
2023/08/21 03:46:34;;;;;;;2.25;2.15;;;21.10;99.90;;;21.53;81.83;102202.59;5042944;28;20132;-73
2023/08/21 03:49:03;;;;;;;2.20;2.10;;;21.10;99.90;;;21.28;81.09;102210.47;5051676;28;20083;-72
2023/08/21 03:51:31;;;;;;;2.40;2.30;;;21.00;99.90;;;21.13;82.74;102210.91;5043809;28;20064;-72
2023/08/21 03:54:00;;;;;;;2.90;2.80;;;20.80;99.90;;;20.89;83.88;102175.63;5044142;28;20049;-73
2023/08/21 03:56:30;;;;;;;2.75;2.65;;;20.70;99.90;;;20.99;84.39;102206.75;5043087;28;20054;-73
2023/08/21 03:58:58;;;;;;;3.17;3.07;;;20.60;99.90;;;21.10;84.44;102210.09;5049414;28;20562;-72
2023/08/21 04:01:26;;;;;;;2.50;2.40;;;20.60;99.90;;;21.19;83.79;102209.84;5052681;28;20106;-73
2023/08/21 04:03:55;;;;;;;2.45;2.35;;;20.70;99.90;;;21.15;83.63;102216.25;5049345;28;20132;-73
2023/08/21 04:06:23;;;;;;;3.83;3.63;;;20.70;99.90;;;21.00;84.18;102213.91;5033504;28;20057;-72
2023/08/21 04:08:52;;;;;;;2.45;2.35;;;20.60;99.90;;;20.83;84.94;102206.25;5033769;28;20384;-72
2023/08/21 04:11:20;;;;;;;2.50;2.40;;;20.40;99.90;;;20.72;85.36;102213.72;5033612;28;20050;-73
2023/08/21 04:13:50;;;;;;;2.63;2.53;;;20.30;99.90;;;20.49;85.54;102213.41;5034945;28;20045;-73
2023/08/21 04:16:21;;;;;;;2.50;2.40;;;20.10;99.90;;;20.42;86.09;102214.47;5050422;28;20049;-73
2023/08/21 04:18:49;;;;;;;2.67;2.58;;;19.90;99.90;;;20.55;86.17;102207.88;5044107;28;20300;-73
2023/08/21 04:21:19;;;;;;;2.70;2.60;;;20.00;99.90;;;20.69;85.97;102209.28;5041411;28;20084;-73
2023/08/21 04:23:50;;;;;;;2.50;2.40;;;20.20;99.90;;;20.78;86.29;102210.00;5052006;28;20098;-73
2023/08/21 04:26:19;;;;;;;2.20;2.10;;;20.30;99.90;;;20.88;85.98;102211.53;5033795;28;20056;-72
2023/08/21 04:28:47;;;;;;;2.30;2.20;;;20.40;99.90;;;20.96;85.83;102214.91;5040299;28;20049;-73
2023/08/21 04:31:17;;;;;;;2.75;2.65;;;20.50;99.90;;;21.07;86.25;102216.44;5054398;28;20564;-73
2023/08/21 04:33:48;;;;;;;2.55;2.45;;;20.60;99.90;;;21.13;86.21;102208.22;5041892;28;20046;-74
2023/08/21 04:36:18;;;;;;;2.88;2.78;;;20.70;99.90;;;21.23;85.99;102216.91;5049536;28;20045;-72
2023/08/21 04:38:49;;;;;;;2.63;2.53;;;20.80;99.90;;;21.32;85.80;102228.31;5043113;28;20053;-72
2023/08/21 04:41:17;;;;;;;2.60;2.50;;;20.90;99.90;;;21.39;85.45;102218.25;5048592;28;20045;-72
2023/08/21 04:43:47;;;;;;;2.63;2.53;;;21.00;99.90;;;21.40;84.96;102220.03;5040213;28;20042;-72
2023/08/21 04:46:17;;;;;;;2.53;2.42;;;21.00;99.90;;;21.16;83.27;102218.00;5044748;28;20061;-71
2023/08/21 04:48:46;;;;;;;2.70;2.60;;;20.80;99.90;;;21.15;84.01;102218.94;5049553;28;20079;-72
2023/08/21 04:51:14;;;;;;;2.63;2.53;;;20.70;99.90;;;21.25;84.20;102225.84;5050000;28;20448;-73
2023/08/21 04:53:43;;;;;;;2.40;2.30;;;20.80;99.90;;;21.34;84.35;102229.16;5041753;28;20045;-73
2023/08/21 04:56:16;;;;;;;2.80;2.70;;;20.90;99.90;;;21.40;84.41;102220.03;5040870;28;20391;-72
2023/08/21 04:58:45;;;;;;;2.78;2.67;;;20.90;99.90;;;21.49;84.21;102225.16;5051517;28;20052;-73
2023/08/21 05:01:13;;;;;;;2.90;2.80;;;21.10;99.90;;;21.53;84.19;102224.16;5039867;28;20048;-72
2023/08/21 05:03:47;;;;;;;2.47;2.38;;;21.10;99.90;;;21.58;84.32;102230.31;5031519;28;20406;-73
2023/08/21 05:06:16;;;;;;;2.70;2.60;;;21.20;99.90;;;21.62;84.32;102231.09;5039388;28;20061;-73
2023/08/21 05:08:45;;;;;;;2.95;2.85;;;21.20;99.90;;;21.66;84.22;102219.31;5032876;28;20242;-72
2023/08/21 05:11:13;;;;;;;2.35;2.25;;;21.30;99.90;;;21.51;82.91;102232.28;5041600;28;20053;-72
2023/08/21 05:13:43;;;;;;;2.97;2.88;;;21.10;99.90;;;21.22;83.82;102232.19;5040784;28;20102;-74
2023/08/21 05:16:14;;;;;;;2.25;2.15;;;20.90;99.90;;;21.31;84.16;102241.84;5042714;28;20061;-75
2023/08/21 05:18:43;;;;;;;2.47;2.38;;;20.90;99.90;;;21.38;84.69;102235.34;5048207;28;20556;-76
2023/08/21 05:21:12;;;;;;;2.50;2.40;;;20.90;99.90;;;21.34;85.07;102239.94;5031560;28;20033;-75
2023/08/21 05:23:42;;;;;;;2.50;2.40;;;20.90;99.90;;;21.41;85.35;102241.53;5039297;28;20099;-71
2023/08/21 05:26:11;;;;;;;2.78;2.67;;;21.00;99.90;;;21.53;84.97;102243.00;5047257;28;20439;-68
2023/08/21 05:28:40;;;;;;;2.85;2.75;;;21.10;99.90;;;21.62;84.84;102239.19;5040218;28;20566;-71
2023/08/21 05:31:08;;;;;;;2.50;2.40;;;21.20;99.90;;;21.76;84.63;102235.16;5048932;28;20052;-72
2023/08/21 05:33:51;;;;;;;2.67;2.58;;;21.30;99.90;;;21.93;84.03;102235.56;5048414;28;20402;-72
2023/08/21 05:36:21;;;;;;;2.40;2.30;;;21.50;99.90;;;22.08;84.04;102232.44;5043489;28;20056;-72
2023/08/21 05:38:51;;;;;;;2.40;2.30;;;21.70;99.90;;;22.23;83.92;102236.47;5041716;28;20073;-73
2023/08/21 05:41:19;;;;;;;2.58;2.47;;;21.90;99.90;;;22.35;83.96;102234.31;5049356;28;20463;-71
2023/08/21 05:43:49;;;;;;;2.70;2.60;;;22.00;99.90;;;22.51;83.37;102236.50;5041728;28;20042;-73
2023/08/21 05:46:17;;;;;;;2.60;2.50;;;22.10;99.90;;;22.57;83.01;102244.44;5040106;28;20130;-71
2023/08/21 05:48:46;;;;;;;2.88;2.78;;;22.20;99.90;;;22.69;82.97;102244.91;5050857;28;20053;-72
2023/08/21 05:51:14;;;;;;;2.17;2.08;;;22.30;99.90;;;22.84;82.92;102247.09;5040559;28;20045;-74
2023/08/21 05:53:44;;;;;;;2.33;2.22;;;22.50;99.90;;;22.99;82.68;102245.72;5032113;28;20037;-73
2023/08/21 05:56:13;;;;;;;2.47;2.38;;;22.70;99.90;;;23.20;81.98;102251.28;5032682;28;20045;-73
2023/08/21 05:58:41;;;;;;;2.65;2.55;;;22.80;99.90;;;23.37;81.09;102248.00;5031044;28;20457;-74
2023/08/21 06:01:12;;;;;;;2.30;2.20;;;23.00;99.90;;;23.02;80.59;102154.72;5032200;28;20091;-74
2023/08/21 06:03:42;;;;;;;2.20;2.10;;;23.20;99.90;;;23.73;80.04;102253.94;5054346;28;20076;-74
2023/08/21 06:06:37;;;;;;;2.30;2.20;;;23.40;99.90;;;23.94;79.33;102256.69;5039034;28;20084;-72
2023/08/21 06:09:07;;;;;;;2.25;2.15;;;23.60;99.90;;;24.11;79.07;102248.88;5048076;28;20079;-74
2023/08/21 06:11:36;;;;;;;;;;;23.70;99.90;;;24.25;78.91;102256.47;5051331;28;20045;-74
2023/08/21 06:14:05;;;;;;;2.25;2.15;;;23.90;99.90;;;24.42;77.92;102253.97;5047211;28;19968;-74
2023/08/21 06:16:33;;;;;;;2.10;2.00;;;24.10;99.90;;;24.63;77.64;102271.16;5031864;28;20057;-74
2023/08/21 06:19:02;;;;;;;2.10;2.00;;;24.20;99.90;;;24.79;77.10;102266.94;5032155;28;20045;-74
2023/08/21 06:21:30;;;;;;;2.35;2.25;;;24.40;99.90;;;24.97;76.41;102274.31;5030808;28;20060;-74
2023/08/21 06:23:58;;;;;;;2.25;2.15;;;24.60;99.90;;;25.08;76.17;102269.31;5038719;28;20041;-75
2023/08/21 06:26:28;;;;;;;1.92;1.83;;;24.70;99.90;;;25.22;76.47;102275.03;5040349;28;20115;-74
2023/08/21 06:28:57;;;;;;;1.85;1.80;;;24.80;99.90;;;25.28;76.13;102266.63;5040208;28;20056;-74
2023/08/21 06:31:25;;;;;;;1.88;1.80;;;24.90;99.90;;;25.33;75.93;102278.16;5042808;28;20050;-73
2023/08/21 06:33:53;;;;;;;1.95;1.85;;;24.90;99.90;;;25.42;75.89;102279.59;5041019;28;20042;-75
2023/08/21 06:36:22;;;;;;;2.08;1.98;;;25.00;99.90;;;25.48;76.14;102277.50;5042009;28;20087;-74
2023/08/21 06:38:50;;;;;;;1.92;1.88;;;25.10;99.90;;;25.59;75.65;102283.34;5038857;28;20041;-74
2023/08/21 06:41:18;;;;;;;2.00;1.90;;;25.20;99.90;;;25.64;75.57;102281.31;5040156;28;20041;-75
2023/08/21 06:43:48;;;;;;;1.90;1.83;;;25.30;99.90;;;25.78;75.36;102281.56;5053427;28;20139;-74
2023/08/21 06:46:19;;;;;;;2.03;1.92;;;25.40;99.90;;;25.86;74.72;102282.09;5052207;28;20060;-75
2023/08/21 06:48:47;;;;;;;8.13;5.93;;;25.50;99.90;;;25.87;74.76;102283.00;5052346;28;20569;-74
2023/08/21 06:51:15;;;;;;;1.60;1.60;;;25.50;99.90;;;26.01;75.04;102277.81;5045199;28;20510;-75
2023/08/21 06:53:45;;;;;;;1.70;1.70;;;25.70;99.90;;;26.04;75.44;102280.38;5043139;28;20053;-76
2023/08/21 06:56:13;;;;;;;1.80;1.77;;;25.70;99.90;;;26.09;74.43;102285.63;5045916;28;20394;-75
2023/08/21 06:58:42;;;;;;;1.85;1.85;;;25.70;99.90;;;26.14;73.99;102284.47;5043575;28;20124;-76
2023/08/21 07:01:11;;;;;;;1.60;1.60;;;25.80;99.90;;;26.25;74.43;102282.13;5046519;28;20453;-75
2023/08/21 07:03:40;;;;;;;1.67;1.67;;;25.90;99.90;;;26.32;74.48;102296.31;5034890;28;20564;-70
2023/08/21 07:06:08;;;;;;;1.50;1.50;;;26.00;99.90;;;26.40;73.77;102286.81;5034739;28;20049;-68
2023/08/21 07:08:37;;;;;;;1.58;1.58;;;26.10;99.90;;;26.34;73.74;102270.88;5034347;28;20119;-69
2023/08/21 07:11:06;;;;;;;1.50;1.50;;;26.20;99.90;;;26.30;73.32;102288.25;5036317;28;20045;-70
2023/08/21 07:13:34;;;;;;;1.40;1.40;;;26.00;99.90;;;26.38;72.24;102282.44;5044936;28;20512;-69
2023/08/21 07:16:04;;;;;;;1.48;1.48;;;26.10;99.90;;;26.58;71.68;102291.38;5045125;28;20077;-71
2023/08/21 07:18:35;;;;;;;1.50;1.50;;;26.20;99.90;;;26.68;71.43;102297.25;5043655;28;20045;-69
2023/08/21 07:21:04;;;;;;;1.55;1.55;;;26.30;99.90;;;26.75;70.91;102298.78;5045915;28;20052;-68
2023/08/21 07:23:45;;;;;;;2.58;2.13;;;26.40;99.90;;;26.81;69.59;102303.88;5044346;28;20049;-70
2023/08/21 07:26:14;;;;;;;1.63;1.63;;;26.40;99.90;;;26.86;70.10;102301.81;5043049;28;20065;-70
2023/08/21 07:28:42;;;;;;;2.20;2.10;;;26.60;99.90;;;26.92;70.05;102300.63;5045047;28;20045;-68
2023/08/21 07:31:11;;;;;;;1.55;1.55;;;26.70;99.90;;;26.98;69.43;102300.34;5043403;28;20048;-68
2023/08/21 07:33:40;;;;;;;2.03;1.95;;;26.70;99.90;;;26.96;69.25;102305.84;5045644;28;20375;-75
2023/08/21 07:36:09;;;;;;;1.70;1.70;;;26.70;99.90;;;26.98;69.79;102305.78;5042552;28;20045;-68
2023/08/21 07:38:37;;;;;;;1.48;1.48;;;26.70;99.90;;;27.14;69.86;102306.78;5034522;28;20458;-71
2023/08/21 07:41:09;;;;;;;1.48;1.48;;;26.80;99.90;;;26.65;68.74;102215.94;5034139;28;20041;-67
2023/08/21 07:43:38;;;;;;;1.38;1.38;;;26.90;99.90;;;26.73;69.74;102221.91;5041454;28;20057;-67
2023/08/21 07:46:09;;;;;;;1.30;1.30;;;26.90;99.90;;;27.36;69.13;102308.34;5034145;28;20037;-70
2023/08/21 07:48:37;;;;;;;;;;;27.10;99.90;;;27.47;68.00;102310.50;5045276;28;20068;-66
2023/08/21 07:51:07;;;;;;;1.55;1.55;;;27.20;99.90;;;27.58;67.50;102327.16;5042618;28;19929;-67
2023/08/21 07:53:35;;;;;;;1.33;1.33;;;27.30;99.90;;;27.65;67.80;102329.47;5045534;28;20041;-67
2023/08/21 07:56:05;;;;;;;1.30;1.30;;;27.40;99.90;;;27.72;66.49;102327.28;5041905;28;20057;-67
2023/08/21 07:58:34;;;;;;;1.33;1.33;;;27.40;99.90;;;27.62;67.32;102323.31;5040958;28;20107;-67
2023/08/21 08:01:04;;;;;;;1.30;1.30;;;27.30;99.90;;;27.56;66.72;102319.06;5044817;28;20049;-67
2023/08/21 08:03:32;;;;;;;1.20;1.20;;;27.20;99.90;;;27.64;66.26;102313.25;5043756;28;20041;-68
2023/08/21 08:06:01;;;;;;;1.48;1.48;;;27.30;99.90;;;27.78;65.52;102320.69;5044147;28;20037;-69
2023/08/21 08:08:31;;;;;;;1.52;1.52;;;27.50;99.90;;;27.81;65.71;102315.94;5043836;28;20107;-69
2023/08/21 08:11:03;;;;;;;1.25;1.25;;;27.50;99.90;;;27.55;65.33;102298.28;5043063;28;20052;-65
2023/08/21 08:13:33;;;;;;;1.30;1.30;;;27.50;99.90;;;27.82;64.62;102316.81;5045759;28;20453;-66
2023/08/21 08:16:02;;;;;;;1.30;1.30;;;27.60;99.90;;;27.31;64.94;102228.81;5033442;28;20115;-66
2023/08/21 08:18:30;;;;;;;1.17;1.17;;;27.60;99.90;;;27.95;64.25;102323.41;5041124;28;20057;-66
2023/08/21 08:20:58;;;;;;;1.40;1.40;;;27.70;99.90;;;27.99;64.99;102328.59;5044311;28;20099;-66
2023/08/21 08:23:27;;;;;;;1.13;1.13;;;27.70;99.90;;;28.11;63.85;102329.75;5042835;28;20038;-67
2023/08/21 08:25:57;;;;;;;1.23;1.23;;;27.90;99.90;;;28.19;63.84;102328.41;5043518;28;20041;-66
2023/08/21 08:28:25;;;;;;;1.40;1.40;;;27.90;99.90;;;28.31;64.16;102329.56;5043747;28;20042;-66
2023/08/21 08:30:54;;;;;;;1.10;1.10;;;28.10;99.90;;;28.25;62.80;102321.72;5042615;28;20076;-67
2023/08/21 08:33:22;;;;;;;1.10;1.10;;;28.10;99.90;;;28.31;61.93;102319.56;5044512;28;20045;-68
2023/08/21 08:35:51;;;;;;;1.20;1.20;;;28.10;99.90;;;28.27;61.97;102317.09;5041472;28;20497;-66
2023/08/21 08:38:19;;;;;;;1.20;1.20;;;28.00;99.90;;;28.20;62.20;102310.22;5041136;28;20049;-67
2023/08/21 08:40:50;;;;;;;1.10;1.10;;;28.00;99.90;;;28.24;62.23;102309.09;5041527;28;20072;-67
2023/08/21 08:43:21;;;;;;;1.20;1.20;;;28.00;99.90;;;28.38;61.89;102311.91;5044092;28;20110;-68
2023/08/21 08:45:50;;;;;;;;;;;28.10;99.90;;;28.38;61.26;102306.47;5043395;28;20056;-68
2023/08/21 08:48:20;;;;;;;1.10;1.10;;;28.20;99.90;;;28.44;61.17;102327.91;5042720;28;19946;-69
2023/08/21 08:50:49;;;;;;;1.25;1.25;;;28.10;99.90;;;28.43;60.53;102321.63;5043661;28;20052;-70
2023/08/21 08:53:19;;;;;;;1.47;1.47;;;28.20;99.90;;;28.11;61.63;102316.16;5041636;28;20037;-70
2023/08/21 08:55:49;;;;;;;1.20;1.20;;;27.90;99.90;;;28.19;62.49;102316.63;5044863;28;20045;-70
2023/08/21 08:58:17;;;;;;;1.38;1.38;;;27.80;99.90;;;28.14;61.81;102319.63;5040135;28;20042;-65
2023/08/21 09:00:47;;;;;;;1.10;1.10;;;27.80;99.90;;;27.99;61.50;102320.41;5042556;28;20049;-67
2023/08/21 09:03:16;;;;;;;1.20;1.20;;;27.60;99.90;;;27.91;61.45;102333.56;5041469;28;20053;-66
2023/08/21 09:05:45;;;;;;;1.30;1.30;;;27.50;99.90;;;27.92;61.42;102331.69;5042732;28;20375;-67
2023/08/21 09:08:14;;;;;;;1.23;1.23;;;27.60;99.90;;;28.04;61.06;102325.63;5042956;28;20099;-67
2023/08/21 09:10:45;;;;;;;1.20;1.20;;;27.70;99.90;;;28.15;62.44;102325.91;5041922;28;20561;-67
2023/08/21 09:13:16;;;;;;;1.30;1.30;;;27.80;99.90;;;27.82;60.17;102319.53;5044150;28;20049;-67
2023/08/21 09:15:48;;;;;;;1.50;1.50;;;27.70;99.90;;;27.76;60.45;102322.59;5040946;28;20050;-67
2023/08/21 09:18:17;;;;;;;1.95;1.83;;;27.50;99.90;;;27.88;60.99;102322.81;5043504;28;20045;-68
2023/08/21 09:20:45;;;;;;;1.27;1.27;;;27.50;99.90;;;27.97;60.70;102321.50;5042046;28;20475;-69
2023/08/21 09:23:18;;;;;;;1.35;1.35;;;27.60;99.90;;;27.80;59.98;102318.75;5042514;28;20056;-67
2023/08/21 09:25:48;;;;;;;1.83;1.73;;;27.50;99.90;;;27.56;60.06;102321.78;5042848;28;20049;-67
2023/08/21 09:28:21;;;;;;;1.60;1.60;;;27.30;99.90;;;27.59;59.68;102326.19;5041115;28;20127;-66
2023/08/21 09:30:53;;;;;;;1.30;1.30;;;27.30;99.90;;;27.71;60.64;102316.50;5041014;28;20184;-69
2023/08/21 09:33:24;;;;;;;1.38;1.38;;;27.30;99.90;;;27.72;59.43;102315.56;5049968;28;20469;-68
2023/08/21 09:35:54;;;;;;;1.40;1.40;;;27.40;99.90;;;27.83;59.70;102315.84;5042399;28;20052;-69
2023/08/21 09:38:22;;;;;;;1.50;1.50;;;27.50;99.90;;;27.73;61.34;102325.47;5041927;28;20431;-67
2023/08/21 09:40:53;;;;;;;1.50;1.50;;;27.50;99.90;;;27.71;60.77;102311.06;5043540;28;20045;-67
2023/08/21 09:43:23;;;;;;;1.50;1.50;;;27.40;99.90;;;27.72;60.33;102307.41;5040783;28;20049;-67
2023/08/21 09:45:56;;;;;;;1.30;1.30;;;27.40;99.90;;;27.72;60.67;102310.13;5040464;28;20099;-71
2023/08/21 09:48:27;;;;;;;1.30;1.30;;;27.40;99.90;;;27.82;60.58;102312.25;5043143;28;20045;-68
2023/08/21 09:50:56;;;;;;;1.30;1.30;;;27.50;99.90;;;27.91;61.05;102325.38;5042344;28;20071;-68
2023/08/21 09:53:25;;;;;;;1.58;1.58;;;27.60;99.90;;;27.77;58.74;102294.41;5041758;28;20407;-67
2023/08/21 09:55:55;;;;;;;1.83;1.73;;;27.60;99.90;;;27.94;59.35;102308.91;5042937;28;20051;-69
2023/08/21 09:58:25;;;;;;;1.30;1.30;;;27.70;99.90;;;28.02;60.27;102309.38;5040612;28;20037;-68
2023/08/21 10:00:59;;;;;;;1.20;1.20;;;27.70;99.90;;;28.06;59.06;102307.38;5032211;28;20046;-67
2023/08/21 10:03:29;;;;;;;2.20;2.10;;;27.80;99.90;;;28.03;58.14;102285.78;5032003;28;20069;-67
2023/08/21 10:06:00;;;;;;;1.30;1.30;;;27.90;99.90;;;28.21;58.04;102314.69;5032032;28;20068;-67
2023/08/21 10:08:29;;;;;;;1.38;1.38;;;28.00;99.90;;;28.08;58.18;102305.44;5034470;28;20049;-67
2023/08/21 10:10:59;;;;;;;1.52;1.52;;;27.90;99.90;;;28.08;57.44;102313.63;5041027;28;20050;-66
2023/08/21 10:13:33;;;;;;;1.60;1.60;;;27.80;99.90;;;28.18;56.79;102310.31;5040070;28;20077;-65
2023/08/21 10:16:03;;;;;;;1.50;1.50;;;27.90;99.90;;;28.42;56.49;102324.41;5046149;28;20052;-66
2023/08/21 10:18:32;;;;;;;;;;;28.10;99.90;;;28.39;55.70;102319.13;5045939;28;20053;-69
2023/08/21 10:21:13;;;;;;;1.40;1.40;;;28.20;99.90;;;28.30;56.13;102314.22;5046123;28;19920;-75
2023/08/21 10:23:42;;;;;;;1.50;1.50;;;28.10;99.90;;;28.48;55.77;102313.16;5047583;28;20052;-74
2023/08/21 10:26:14;;;;;;;1.58;1.58;;;28.20;99.90;;;27.86;56.41;102304.81;5044506;28;20049;-74